createdAt,value
2023-04-15T00:01:08.122Z,7.85
2023-04-15T00:03:35.577Z,5.38
2023-04-15T00:06:02.579Z,6.53
2023-04-15T00:08:30.011Z,9.10
2023-04-15T00:10:56.605Z,10.63
2023-04-15T00:13:23.641Z,5.93
2023-04-15T00:15:50.260Z,8.07
2023-04-15T00:18:16.896Z,8.38
2023-04-15T00:20:43.579Z,7.63
2023-04-15T00:23:10.209Z,8.27
2023-04-15T00:25:36.917Z,7.93
2023-04-15T00:28:03.972Z,8.52
2023-04-15T00:30:31.425Z,7.68
2023-04-15T00:32:58.143Z,9.93
2023-04-15T00:35:25.464Z,6.40
2023-04-15T00:37:52.077Z,5.68
2023-04-15T00:40:20.962Z,6.55
2023-04-15T00:42:47.889Z,6.82
2023-04-15T00:45:14.595Z,7.20
2023-04-15T00:47:44.808Z,7.35
2023-04-15T00:50:12.746Z,7.10
2023-04-15T00:52:40.707Z,6.18
2023-04-15T00:55:08.736Z,7.13
2023-04-15T00:57:36.451Z,7.53
2023-04-15T01:00:05.663Z,8.38
2023-04-15T01:02:33.331Z,7.38
2023-04-15T01:05:00.528Z,7.20
2023-04-15T01:07:28.180Z,8.65
2023-04-15T01:09:54.844Z,8.98
2023-04-15T01:12:21.677Z,7.45
2023-04-15T01:14:48.306Z,9.63
2023-04-15T01:17:15.007Z,6.93
2023-04-15T01:19:42.300Z,8.73
2023-04-15T01:22:09.237Z,10.68
2023-04-15T01:24:36.867Z,7.22
2023-04-15T01:27:05.244Z,10.45
2023-04-15T01:29:33.248Z,10.10
2023-04-15T01:32:00.217Z,7.95
2023-04-15T01:34:27.024Z,10.23
2023-04-15T01:36:53.699Z,6.63
2023-04-15T01:39:20.375Z,10.55
2023-04-15T01:41:47.191Z,7.50
2023-04-15T01:44:13.975Z,7.10
2023-04-15T01:46:40.640Z,8.32
2023-04-15T01:49:07.641Z,9.52
2023-04-15T01:51:34.294Z,7.10
2023-04-15T01:54:01.386Z,6.38
2023-04-15T01:56:28.054Z,8.98
2023-04-15T01:58:54.664Z,10.52
2023-04-15T02:01:22.128Z,8.52
2023-04-15T02:03:49.007Z,9.38
2023-04-15T02:06:16.022Z,9.75
2023-04-15T02:08:43.241Z,7.97
2023-04-15T02:11:10.044Z,8.60
2023-04-15T02:13:36.887Z,8.93
2023-04-15T02:16:04.088Z,10.20
2023-04-15T02:18:30.987Z,8.15
2023-04-15T02:20:58.669Z,10.25
2023-04-15T02:23:25.753Z,9.30
2023-04-15T02:25:53.898Z,11.20
2023-04-15T02:28:21.911Z,9.25
2023-04-15T02:30:52.561Z,8.15
2023-04-15T02:33:19.617Z,8.55
2023-04-15T02:35:46.563Z,9.95
2023-04-15T02:38:14.312Z,7.65
2023-04-15T02:40:40.966Z,8.63
2023-04-15T02:43:07.759Z,11.68
2023-04-15T02:45:34.760Z,8.93
2023-04-15T02:48:06.036Z,8.88
2023-04-15T02:50:32.904Z,8.43
2023-04-15T02:53:01.385Z,9.82
2023-04-15T02:55:28.964Z,9.30
2023-04-15T02:57:55.718Z,10.02
2023-04-15T03:00:25.150Z,8.85
2023-04-15T03:02:56.379Z,10.30
2023-04-15T03:05:26.413Z,12.48
2023-04-15T03:07:53.331Z,9.57
2023-04-15T03:10:20.737Z,13.02
2023-04-15T03:12:47.793Z,10.40
2023-04-15T03:15:14.846Z,10.23
2023-04-15T03:17:41.626Z,9.65
2023-04-15T03:20:08.754Z,8.95
2023-04-15T03:22:35.441Z,7.88
2023-04-15T03:25:02.084Z,9.82
2023-04-15T03:27:28.770Z,9.80
2023-04-15T03:29:56.684Z,12.70
2023-04-15T03:32:23.359Z,14.75
2023-04-15T03:34:50.208Z,11.05
2023-04-15T03:37:16.897Z,12.40
2023-04-15T03:39:43.587Z,10.40
2023-04-15T03:42:10.258Z,7.43
2023-04-15T03:44:37.109Z,11.13
2023-04-15T03:47:03.747Z,8.52
2023-04-15T03:49:30.426Z,10.45
2023-04-15T03:51:57.342Z,10.35
2023-04-15T03:54:23.953Z,10.80
2023-04-15T03:56:50.765Z,7.53
2023-04-15T03:59:17.432Z,12.93
2023-04-15T04:01:44.109Z,12.10
2023-04-15T04:04:10.875Z,8.65
2023-04-15T04:06:37.662Z,11.15
2023-04-15T04:09:04.308Z,11.05
2023-04-15T04:11:31.658Z,8.90
2023-04-15T04:13:58.617Z,9.38
2023-04-15T04:16:25.496Z,8.63
2023-04-15T04:18:52.286Z,9.30
2023-04-15T04:21:19.911Z,9.32
2023-04-15T04:23:46.683Z,10.27
2023-04-15T04:26:13.381Z,9.23
2023-04-15T04:28:40.621Z,10.38
2023-04-15T04:31:07.680Z,10.38
2023-04-15T04:33:34.604Z,12.80
2023-04-15T04:36:01.467Z,9.32
2023-04-15T04:38:28.248Z,11.38
2023-04-15T04:40:54.986Z,9.65
2023-04-15T04:43:21.850Z,11.35
2023-04-15T04:45:48.569Z,13.68
2023-04-15T04:48:15.243Z,9.73
2023-04-15T04:50:41.960Z,11.80
2023-04-15T04:53:09.007Z,12.38
2023-04-15T04:55:37.058Z,9.98
2023-04-15T04:58:03.791Z,12.27
2023-04-15T05:00:30.446Z,10.35
2023-04-15T05:02:57.245Z,10.27
2023-04-15T05:05:23.939Z,12.60
2023-04-15T05:07:50.648Z,11.13
2023-04-15T05:10:18.135Z,9.38
2023-04-15T05:12:44.812Z,10.52
2023-04-15T05:15:11.588Z,11.18
2023-04-15T05:17:38.642Z,9.30
2023-04-15T05:20:06.003Z,12.55
2023-04-15T05:22:32.795Z,13.00
2023-04-15T05:24:59.558Z,13.20
2023-04-15T05:27:26.555Z,10.35
2023-04-15T05:29:53.234Z,9.90
2023-04-15T05:32:19.944Z,10.18
2023-04-15T05:34:47.040Z,9.73
2023-04-15T05:37:13.822Z,9.02
2023-04-15T05:39:40.463Z,10.93
2023-04-15T05:42:07.584Z,10.63
2023-04-15T05:44:34.316Z,8.77
2023-04-15T05:47:00.987Z,9.73
2023-04-15T05:49:27.643Z,13.30
2023-04-15T05:51:54.325Z,9.90
2023-04-15T05:54:23.172Z,11.38
2023-04-15T05:56:49.856Z,9.50
2023-04-15T05:59:16.753Z,9.73
2023-04-15T06:01:43.890Z,10.77
2023-04-15T06:04:11.537Z,12.15
2023-04-15T06:06:38.683Z,10.40
2023-04-15T06:09:05.412Z,11.00
2023-04-15T06:11:32.099Z,10.10
2023-04-15T06:13:58.788Z,12.77
2023-04-15T06:16:25.513Z,9.50
2023-04-15T06:18:52.170Z,11.40
2023-04-15T06:21:19.130Z,10.55
2023-04-15T06:23:45.763Z,9.07
2023-04-15T06:26:12.331Z,11.63
2023-04-15T06:28:38.937Z,9.57
2023-04-15T06:31:05.657Z,10.05
2023-04-15T06:33:32.333Z,9.00
2023-04-15T06:35:58.947Z,9.07
2023-04-15T06:38:25.859Z,9.90
2023-04-15T06:40:52.698Z,10.50
2023-04-15T06:43:20.158Z,11.38
2023-04-15T06:45:47.182Z,10.20
2023-04-15T06:48:13.910Z,11.02
2023-04-15T06:50:41.318Z,11.32
2023-04-15T06:53:07.966Z,11.15
2023-04-15T06:55:34.594Z,14.00
2023-04-15T06:58:01.267Z,9.90
2023-04-15T07:00:28.680Z,12.40
2023-04-15T07:02:55.663Z,14.60
2023-04-15T07:05:22.362Z,16.05
2023-04-15T07:07:49.013Z,13.07
2023-04-15T07:10:15.912Z,11.02
2023-04-15T07:12:42.777Z,10.38
2023-04-15T07:15:09.937Z,13.45
2023-04-15T07:17:37.150Z,12.35
2023-04-15T07:20:04.863Z,11.45
2023-04-15T07:22:31.560Z,10.93
2023-04-15T07:24:58.228Z,12.25
2023-04-15T07:27:24.858Z,11.80
2023-04-15T07:29:52.198Z,10.40
2023-04-15T07:32:19.406Z,10.90
2023-04-15T07:34:46.411Z,11.50
2023-04-15T07:37:13.550Z,12.50
2023-04-15T07:39:40.375Z,10.45
2023-04-15T07:42:07.385Z,10.10
2023-04-15T07:44:34.087Z,10.68
2023-04-15T07:47:02.553Z,8.93
2023-04-15T07:49:29.216Z,8.50
2023-04-15T07:51:57.556Z,7.22
2023-04-15T07:54:24.361Z,8.75
2023-04-15T07:56:51.343Z,7.75
2023-04-15T07:59:18.078Z,7.82
2023-04-15T08:01:45.055Z,6.80
2023-04-15T08:04:11.987Z,9.98
2023-04-15T08:06:39.865Z,6.72
2023-04-15T08:09:08.139Z,9.23
2023-04-15T08:11:34.908Z,9.27
2023-04-15T08:14:02.064Z,6.68
2023-04-15T08:16:29.804Z,7.93
2023-04-15T08:18:57.662Z,8.18
2023-04-15T08:21:25.042Z,7.78
2023-04-15T08:23:53.238Z,7.82
2023-04-15T08:26:21.048Z,10.20
2023-04-15T08:28:48.772Z,8.77
2023-04-15T08:31:17.138Z,6.53
2023-04-15T08:33:44.048Z,9.13
2023-04-15T08:36:10.712Z,7.72
2023-04-15T08:38:37.689Z,7.60
2023-04-15T08:41:23.790Z,9.55
2023-04-15T08:43:57.572Z,6.78
2023-04-15T08:46:24.442Z,7.20
2023-04-15T08:48:51.218Z,7.78
2023-04-15T08:51:18.560Z,8.02
2023-04-15T08:53:47.450Z,10.00
2023-04-15T08:56:16.755Z,7.38
2023-04-15T08:58:45.030Z,5.85
2023-04-15T09:01:13.218Z,6.47
2023-04-15T09:03:41.699Z,6.57
2023-04-15T09:06:08.993Z,7.25
2023-04-15T09:08:35.798Z,8.25
2023-04-15T09:11:05.590Z,3.97
2023-04-15T09:13:32.224Z,5.63
2023-04-15T09:15:58.787Z,8.90
2023-04-15T09:18:33.407Z,7.22
2023-04-15T09:21:11.353Z,4.57
2023-04-15T09:23:39.783Z,5.13
2023-04-15T09:26:07.150Z,5.75
2023-04-15T09:28:40.930Z,15.02
2023-04-15T09:31:07.847Z,6.75
2023-04-15T09:33:34.594Z,4.40
2023-04-15T09:36:04.670Z,6.35
2023-04-15T09:38:32.349Z,7.57
2023-04-15T09:40:59.735Z,3.83
2023-04-15T09:43:46.644Z,5.45
2023-04-15T09:46:13.305Z,6.30
2023-04-15T09:48:40.049Z,8.10
2023-04-15T09:51:06.643Z,11.60
2023-04-15T09:53:36.612Z,5.15
2023-04-15T09:56:03.667Z,5.68
2023-04-15T09:58:33.250Z,7.88
2023-04-15T10:01:01.769Z,5.15
2023-04-15T10:03:31.552Z,4.35
2023-04-15T10:06:00.342Z,4.13
2023-04-15T10:08:32.791Z,4.82
2023-04-15T10:11:00.733Z,4.97
2023-04-15T10:13:32.928Z,3.17
2023-04-15T10:16:05.080Z,4.65
2023-04-15T10:18:35.099Z,4.18
2023-04-15T10:21:02.256Z,3.83
2023-04-15T10:23:29.354Z,3.47
2023-04-15T10:25:57.545Z,3.80
2023-04-15T10:28:24.843Z,5.68
2023-04-15T10:30:52.723Z,4.55
2023-04-15T10:33:24.879Z,3.95
2023-04-15T10:35:54.356Z,5.03
2023-04-15T10:38:39.608Z,5.28
2023-04-15T10:41:12.992Z,5.97
2023-04-15T10:43:40.129Z,5.28
2023-04-15T10:46:07.687Z,3.78
2023-04-15T10:48:34.466Z,4.70
2023-04-15T10:51:05.111Z,6.25
2023-04-15T10:53:32.039Z,6.32
2023-04-15T10:55:59.769Z,4.78
2023-04-15T10:58:27.290Z,4.47
2023-04-15T11:00:54.263Z,5.78
2023-04-15T11:03:39.275Z,5.78
2023-04-15T11:06:07.435Z,4.35
2023-04-15T11:08:53.638Z,4.47
2023-04-15T11:11:20.875Z,4.93
2023-04-15T11:13:49.861Z,2.47
2023-04-15T11:16:17.801Z,4.30
2023-04-15T11:18:55.621Z,3.08
2023-04-15T11:21:26.143Z,2.00
2023-04-15T11:23:52.895Z,3.25
2023-04-15T11:26:19.679Z,2.20
2023-04-15T11:28:46.774Z,3.55
2023-04-15T11:31:18.464Z,5.63
2023-04-15T11:33:57.029Z,2.45
2023-04-15T11:36:28.022Z,4.00
2023-04-15T11:38:56.153Z,3.63
2023-04-15T11:41:24.102Z,5.88
2023-04-15T11:43:51.785Z,4.22
2023-04-15T11:46:19.234Z,2.72
2023-04-15T11:48:47.323Z,3.13
2023-04-15T11:51:14.510Z,3.55
2023-04-15T11:53:49.235Z,3.75
2023-04-15T11:56:21.387Z,3.55
2023-04-15T11:58:50.865Z,2.35
2023-04-15T12:01:17.731Z,2.70
2023-04-15T12:03:49.280Z,4.38
2023-04-15T12:06:19.012Z,2.17
2023-04-15T12:09:00.681Z,3.95
2023-04-15T12:11:27.339Z,3.42
2023-04-15T12:13:56.723Z,2.72
2023-04-15T12:16:24.840Z,3.47
2023-04-15T12:18:52.781Z,3.45
2023-04-15T12:21:21.391Z,4.82
2023-04-15T12:23:52.400Z,1.92
2023-04-15T12:26:27.575Z,3.10
2023-04-15T12:29:04.930Z,3.38
2023-04-15T12:31:31.672Z,2.58
2023-04-15T12:34:00.575Z,2.55
2023-04-15T12:36:28.514Z,4.90
2023-04-15T12:38:55.488Z,3.70
2023-04-15T12:41:22.435Z,2.38
2023-04-15T12:43:49.063Z,1.90
2023-04-15T12:46:15.889Z,2.58
2023-04-15T12:48:42.604Z,5.75
2023-04-15T12:51:09.246Z,3.38
2023-04-15T12:53:35.900Z,4.75
2023-04-15T12:56:02.671Z,4.82
2023-04-15T12:58:29.395Z,2.25
2023-04-15T13:00:57.188Z,3.10
2023-04-15T13:03:23.987Z,3.63
2023-04-15T13:05:51.110Z,2.25
2023-04-15T13:08:17.847Z,4.07
2023-04-15T13:10:44.688Z,3.47
2023-04-15T13:13:11.334Z,2.08
2023-04-15T13:15:38.199Z,3.22
2023-04-15T13:18:06.571Z,2.70
2023-04-15T13:20:33.232Z,1.42
2023-04-15T13:22:59.886Z,2.92
2023-04-15T13:25:27.762Z,2.35
2023-04-15T13:27:54.437Z,4.95
2023-04-15T13:30:21.324Z,3.83
2023-04-15T13:32:50.505Z,2.80
2023-04-15T13:35:17.461Z,2.45
2023-04-15T13:37:44.080Z,2.28
2023-04-15T13:40:11.622Z,4.30
2023-04-15T13:42:38.307Z,4.82
2023-04-15T13:45:05.600Z,3.20
2023-04-15T13:47:32.288Z,2.67
2023-04-15T13:49:58.934Z,4.15
2023-04-15T13:52:25.675Z,3.10
2023-04-15T13:55:11.750Z,3.40
2023-04-15T13:57:38.926Z,2.22
2023-04-15T14:00:06.287Z,3.53
2023-04-15T14:02:33.067Z,3.38
2023-04-15T14:04:59.875Z,3.90
2023-04-15T14:07:26.545Z,3.63
2023-04-15T14:09:53.217Z,1.52
2023-04-15T14:12:19.845Z,3.10
2023-04-15T14:14:46.448Z,2.55
2023-04-15T14:17:13.171Z,1.42
2023-04-15T14:19:39.797Z,1.83
2023-04-15T14:22:06.484Z,1.92
2023-04-15T14:24:33.113Z,5.72
2023-04-15T14:27:00.053Z,2.63
2023-04-15T14:29:26.694Z,3.55
2023-04-15T14:32:04.341Z,4.38
2023-04-15T14:34:39.358Z,2.47
2023-04-15T14:37:06.214Z,3.17
2023-04-15T14:39:32.994Z,1.63
2023-04-15T14:41:59.892Z,3.33
2023-04-15T14:44:26.575Z,4.53
2023-04-15T14:46:53.559Z,2.33
2023-04-15T14:49:20.422Z,2.85
2023-04-15T14:51:47.009Z,3.33
2023-04-15T14:54:13.681Z,5.25
2023-04-15T14:56:40.296Z,5.57
2023-04-15T14:59:07.401Z,4.18
2023-04-15T15:01:34.585Z,3.28
2023-04-15T15:04:01.574Z,1.33
2023-04-15T15:06:28.332Z,3.03
2023-04-15T15:08:55.020Z,4.50
2023-04-15T15:11:21.761Z,3.75
2023-04-15T15:13:48.413Z,5.15
2023-04-15T15:16:15.447Z,5.03
2023-04-15T15:18:42.084Z,8.23
2023-04-15T15:21:08.746Z,4.55
2023-04-15T15:23:35.456Z,2.40
2023-04-15T15:26:02.288Z,6.03
2023-04-15T15:28:28.967Z,5.22
2023-04-15T15:30:55.693Z,3.35
2023-04-15T15:33:22.505Z,3.88
2023-04-15T15:35:50.266Z,4.18
2023-04-15T15:38:17.251Z,5.53
2023-04-15T15:40:43.845Z,4.57
2023-04-15T15:43:10.570Z,4.53
2023-04-15T15:45:37.313Z,7.03
2023-04-15T15:48:05.021Z,14.68
2023-04-15T15:50:32.077Z,6.13
2023-04-15T15:52:58.948Z,5.93
2023-04-15T15:55:27.215Z,6.40
2023-04-15T15:57:54.345Z,4.72
2023-04-15T16:00:21.834Z,3.15
2023-04-15T16:03:06.118Z,6.47
2023-04-15T16:05:33.759Z,4.15
2023-04-15T16:08:00.369Z,4.95
2023-04-15T16:10:27.058Z,4.40
2023-04-15T16:12:54.256Z,6.80
2023-04-15T16:15:22.472Z,4.05
2023-04-15T16:17:49.144Z,3.78
2023-04-15T16:20:15.843Z,7.45
2023-04-15T16:22:42.526Z,6.60
2023-04-15T16:25:09.551Z,5.43
2023-04-15T16:27:54.264Z,5.82
2023-04-15T16:30:23.638Z,5.60
2023-04-15T16:32:50.396Z,8.38
2023-04-15T16:35:17.337Z,5.55
2023-04-15T16:37:44.030Z,5.05
2023-04-15T16:40:11.058Z,7.45
2023-04-15T16:42:37.744Z,7.43
2023-04-15T16:45:04.795Z,8.70
2023-04-15T16:47:31.479Z,9.55
2023-04-15T16:49:58.114Z,9.00
2023-04-15T16:52:24.904Z,7.93
2023-04-15T16:54:51.881Z,4.38
2023-04-15T16:57:18.469Z,8.57
2023-04-15T16:59:45.148Z,4.68
2023-04-15T17:02:13.681Z,9.90
2023-04-15T17:04:41.587Z,8.73
2023-04-15T17:07:11.248Z,9.82
2023-04-15T17:09:41.128Z,5.63
2023-04-15T17:12:08.028Z,8.80
2023-04-15T17:14:35.154Z,21.77
2023-04-15T17:17:02.013Z,6.40
2023-04-15T17:19:28.715Z,9.30
2023-04-15T17:21:55.430Z,25.35
2023-04-15T17:24:22.209Z,9.15
2023-04-15T17:26:48.814Z,9.20
2023-04-15T17:29:15.547Z,7.95
2023-04-15T17:31:42.531Z,6.90
2023-04-15T17:34:09.478Z,8.73
2023-04-15T17:36:36.821Z,3.75
2023-04-15T17:39:03.753Z,9.10
2023-04-15T17:41:30.554Z,8.18
2023-04-15T17:43:57.183Z,6.97
2023-04-15T17:46:24.013Z,9.82
2023-04-15T17:48:50.707Z,5.70
2023-04-15T17:51:17.357Z,16.05
2023-04-15T17:53:44.067Z,12.30
2023-04-15T17:56:10.669Z,5.32
2023-04-15T17:58:39.163Z,7.53
2023-04-15T18:01:06.372Z,7.35
2023-04-15T18:03:33.223Z,8.63
2023-04-15T18:06:01.270Z,5.93
2023-04-15T18:08:28.987Z,6.43
2023-04-15T18:10:56.309Z,5.80
2023-04-15T18:13:23.010Z,5.38
2023-04-15T18:15:51.193Z,10.32
2023-04-15T18:18:17.963Z,12.70
2023-04-15T18:20:44.605Z,11.60
2023-04-15T18:23:11.340Z,4.72
2023-04-15T18:25:38.350Z,12.57
2023-04-15T18:28:05.577Z,10.60
2023-04-15T18:30:32.346Z,5.53
2023-04-15T18:32:59.102Z,8.23
2023-04-15T18:35:25.828Z,10.90
2023-04-15T18:37:52.930Z,11.98
2023-04-15T18:40:19.607Z,10.63
2023-04-15T18:42:46.312Z,6.15
2023-04-15T18:45:13.004Z,8.35
2023-04-15T18:47:39.770Z,8.07
2023-04-15T18:50:08.100Z,10.20
2023-04-15T18:52:34.884Z,10.98
2023-04-15T18:55:03.196Z,4.97
2023-04-15T18:57:36.381Z,6.85
2023-04-15T19:00:04.302Z,3.53
2023-04-15T19:02:31.046Z,6.18
2023-04-15T19:04:57.774Z,5.53
2023-04-15T19:07:24.906Z,4.60
2023-04-15T19:09:51.538Z,3.83
2023-04-15T19:12:18.142Z,4.68
2023-04-15T19:14:44.725Z,6.05
2023-04-15T19:17:11.499Z,6.50
2023-04-15T19:19:38.745Z,4.60
2023-04-15T19:22:05.852Z,5.90
2023-04-15T19:24:33.294Z,4.97
2023-04-15T19:27:00.181Z,3.33
2023-04-15T19:29:28.663Z,5.35
2023-04-15T19:31:56.011Z,2.78
2023-04-15T19:34:22.684Z,4.85
2023-04-15T19:36:49.410Z,2.25
2023-04-15T19:39:16.289Z,4.45
2023-04-15T19:41:44.288Z,6.00
2023-04-15T19:44:12.939Z,5.00
2023-04-15T19:46:40.736Z,3.97
2023-04-15T19:49:07.569Z,6.68
2023-04-15T19:51:34.273Z,1.67
2023-04-15T19:54:01.128Z,7.72
2023-04-15T19:56:27.949Z,7.60
2023-04-15T19:58:54.874Z,6.15
2023-04-15T20:01:22.490Z,6.10
2023-04-15T20:03:49.312Z,3.40
2023-04-15T20:06:16.063Z,4.82
2023-04-15T20:08:42.767Z,3.33
2023-04-15T20:11:10.626Z,6.28
2023-04-15T20:13:37.290Z,6.20
2023-04-15T20:16:07.780Z,12.23
2023-04-15T20:18:34.642Z,6.35
2023-04-15T20:21:01.565Z,5.00
2023-04-15T20:23:28.255Z,4.13
2023-04-15T20:25:55.140Z,3.72
2023-04-15T20:28:23.341Z,10.63
2023-04-15T20:30:50.019Z,7.03
2023-04-15T20:33:16.858Z,11.07
2023-04-15T20:35:43.466Z,4.50
2023-04-15T20:38:10.168Z,5.93
2023-04-15T20:40:36.773Z,5.82
2023-04-15T20:43:03.446Z,9.43
2023-04-15T20:45:30.047Z,7.00
2023-04-15T20:47:56.696Z,8.18
2023-04-15T20:50:23.376Z,4.78
2023-04-15T20:52:49.962Z,9.18
2023-04-15T20:55:16.821Z,6.50
2023-04-15T20:57:43.526Z,5.75
2023-04-15T21:00:11.073Z,8.82
2023-04-15T21:02:38.373Z,8.13
2023-04-15T21:05:05.866Z,8.90
2023-04-15T21:07:32.684Z,7.15
2023-04-15T21:09:59.315Z,9.90
2023-04-15T21:12:26.121Z,10.30
2023-04-15T21:14:52.849Z,9.70
2023-04-15T21:17:19.613Z,7.85
2023-04-15T21:19:46.373Z,10.50
2023-04-15T21:22:12.989Z,8.98
2023-04-15T21:24:39.631Z,7.95
2023-04-15T21:27:06.709Z,8.38
2023-04-15T21:29:33.372Z,5.50
2023-04-15T21:31:59.989Z,13.15
2023-04-15T21:34:26.649Z,6.45
2023-04-15T21:36:53.286Z,11.18
2023-04-15T21:39:19.893Z,5.70
2023-04-15T21:41:46.663Z,5.13
2023-04-15T21:44:14.808Z,10.07
2023-04-15T21:46:42.028Z,10.05
2023-04-15T21:49:12.889Z,9.63
2023-04-15T21:51:39.478Z,10.25
2023-04-15T21:54:06.163Z,9.48
2023-04-15T21:56:32.878Z,7.30
2023-04-15T21:58:59.547Z,9.40
2023-04-15T22:01:26.912Z,6.50
2023-04-15T22:03:53.882Z,12.77
2023-04-15T22:06:21.092Z,6.72
2023-04-15T22:08:56.975Z,8.27
2023-04-15T22:11:28.409Z,8.55
2023-04-15T22:13:56.903Z,9.30
2023-04-15T22:16:25.152Z,8.45
2023-04-15T22:18:51.894Z,8.65
2023-04-15T22:21:18.614Z,7.97
2023-04-15T22:23:47.287Z,6.82
2023-04-15T22:26:14.077Z,7.43
2023-04-15T22:28:40.741Z,5.22
2023-04-15T22:31:07.415Z,14.63
2023-04-15T22:33:34.152Z,16.08
2023-04-15T22:36:01.070Z,7.60
2023-04-15T22:38:27.785Z,10.30
2023-04-15T22:40:54.454Z,10.20
2023-04-15T22:43:21.160Z,10.13
2023-04-15T22:45:51.431Z,7.20
2023-04-15T22:48:18.917Z,10.13
2023-04-15T22:50:46.054Z,5.43
2023-04-15T22:53:12.904Z,6.13
2023-04-15T22:55:39.628Z,11.07
2023-04-15T22:58:06.353Z,8.65
2023-04-15T23:00:32.980Z,9.52
2023-04-15T23:02:59.835Z,12.07
2023-04-15T23:05:27.571Z,12.35
2023-04-15T23:07:54.412Z,9.52
2023-04-15T23:10:21.144Z,8.68
2023-04-15T23:12:47.753Z,9.10
2023-04-15T23:15:14.513Z,11.95
2023-04-15T23:17:42.531Z,14.10
2023-04-15T23:20:09.700Z,11.40
2023-04-15T23:22:40.285Z,9.00
2023-04-15T23:25:07.175Z,7.72
2023-04-15T23:27:33.761Z,11.43
2023-04-15T23:30:00.422Z,5.07
2023-04-15T23:32:27.455Z,11.40
2023-04-15T23:34:54.150Z,12.38
2023-04-15T23:37:20.907Z,16.60
2023-04-15T23:39:47.559Z,5.90
2023-04-15T23:42:14.251Z,8.07
2023-04-15T23:44:40.897Z,11.48
2023-04-15T23:47:07.517Z,10.80
2023-04-15T23:49:34.278Z,9.57
2023-04-15T23:52:00.960Z,10.90
2023-04-15T23:54:27.634Z,8.55
2023-04-15T23:56:54.319Z,8.40
2023-04-15T23:59:20.997Z,7.43
